createdAt,value
2018-11-05T00:00:52.726Z,63.20
2018-11-05T00:03:24.486Z,59.80
2018-11-05T00:05:56.042Z,69.47
2018-11-05T00:08:27.726Z,64.43
2018-11-05T00:11:00.176Z,60.03
2018-11-05T00:13:31.709Z,59.23
2018-11-05T00:16:03.316Z,58.73
2018-11-05T00:18:34.993Z,57.50
2018-11-05T00:21:06.748Z,56.17
2018-11-05T00:23:38.481Z,63.60
2018-11-05T00:26:10.406Z,61.87
2018-11-05T00:28:42.095Z,59.03
2018-11-05T00:31:13.798Z,53.53
2018-11-05T00:33:45.452Z,54.23
2018-11-05T00:36:17.101Z,57.63
2018-11-05T00:38:48.695Z,56.93
2018-11-05T00:41:20.409Z,46.87
2018-11-05T00:43:51.988Z,47.37
2018-11-05T00:46:24.398Z,53.67
2018-11-05T00:48:55.936Z,60.80
2018-11-05T00:51:27.680Z,49.47
2018-11-05T00:53:59.325Z,55.07
2018-11-05T00:56:30.954Z,65.57
2018-11-05T00:59:02.614Z,54.33
2018-11-05T01:01:34.263Z,48.63
2018-11-05T01:04:06.082Z,49.40
2018-11-05T01:06:37.777Z,57.33
2018-11-05T01:09:09.870Z,51.73
2018-11-05T01:11:41.774Z,54.17
2018-11-05T01:14:13.424Z,53.33
2018-11-05T01:16:45.414Z,51.23
2018-11-05T01:19:17.001Z,54.10
2018-11-05T01:21:48.574Z,60.83
2018-11-05T01:24:20.202Z,64.73
2018-11-05T01:26:52.550Z,64.50
2018-11-05T01:29:24.212Z,65.00
2018-11-05T01:31:55.825Z,58.50
2018-11-05T01:34:27.490Z,68.20
2018-11-05T01:36:59.382Z,61.33
2018-11-05T01:39:30.791Z,64.47
2018-11-05T01:42:02.539Z,68.03
2018-11-05T01:44:34.103Z,55.47
2018-11-05T01:47:05.861Z,67.93
2018-11-05T01:49:37.758Z,64.40
2018-11-05T01:52:09.786Z,65.00
2018-11-05T01:54:41.389Z,62.87
2018-11-05T01:57:12.880Z,63.80
2018-11-05T01:59:44.449Z,68.60
2018-11-05T02:02:16.314Z,71.00
2018-11-05T02:04:47.872Z,70.83
2018-11-05T02:07:19.333Z,73.43
2018-11-05T02:09:51.145Z,73.43
2018-11-05T02:12:22.728Z,72.97
2018-11-05T02:14:55.036Z,75.67
2018-11-05T02:17:33.578Z,69.63
2018-11-05T02:20:05.794Z,78.40
2018-11-05T02:22:37.637Z,78.57
2018-11-05T02:25:10.208Z,80.57
2018-11-05T02:27:42.428Z,82.80
2018-11-05T02:30:16.871Z,78.57
2018-11-05T02:32:48.852Z,75.37
2018-11-05T02:35:20.338Z,82.67
2018-11-05T02:37:52.182Z,79.93
2018-11-05T02:40:23.806Z,78.43
2018-11-05T02:42:55.206Z,87.77
2018-11-05T02:45:26.938Z,82.10
2018-11-05T02:47:59.359Z,91.80
2018-11-05T02:50:31.104Z,87.37
2018-11-05T02:53:03.482Z,81.53
2018-11-05T02:55:35.178Z,91.47
2018-11-05T02:58:07.144Z,80.33
2018-11-05T03:00:39.567Z,92.83
2018-11-05T03:03:10.974Z,79.00
2018-11-05T03:05:43.283Z,89.90
2018-11-05T03:08:14.859Z,94.33
2018-11-05T03:10:47.207Z,81.40
2018-11-05T03:13:18.801Z,78.40
2018-11-05T03:15:50.579Z,83.77
2018-11-05T03:18:22.173Z,75.97
2018-11-05T03:20:54.446Z,79.57
2018-11-05T03:23:26.148Z,69.10
2018-11-05T03:25:57.837Z,76.73
2018-11-05T03:30:52.471Z,75.90
2018-11-05T03:33:24.169Z,79.27
2018-11-05T03:35:56.164Z,75.73
2018-11-05T03:38:27.807Z,87.10
2018-11-05T03:40:59.456Z,89.57
2018-11-05T03:43:31.048Z,81.27
2018-11-05T03:46:02.744Z,82.23
2018-11-05T03:48:35.036Z,74.50
2018-11-05T03:51:06.861Z,82.20
2018-11-05T03:53:39.315Z,89.00
2018-11-05T03:56:11.091Z,86.00
2018-11-05T03:58:42.884Z,81.20
2018-11-05T04:01:14.481Z,84.43
2018-11-05T04:03:46.955Z,88.70
2018-11-05T04:06:18.507Z,84.03
2018-11-05T04:08:50.220Z,82.60
2018-11-05T04:11:21.778Z,83.57
2018-11-05T04:13:53.639Z,87.70
2018-11-05T04:16:25.217Z,83.60
2018-11-05T04:18:56.670Z,88.20
2018-11-05T04:21:35.251Z,94.90
2018-11-05T04:24:06.765Z,87.73
2018-11-05T04:26:39.212Z,82.57
2018-11-05T04:29:10.911Z,83.30
2018-11-05T04:31:42.712Z,71.67
2018-11-05T04:34:14.176Z,85.33
2018-11-05T04:36:46.150Z,80.13
2018-11-05T04:39:17.727Z,82.50
2018-11-05T04:41:49.382Z,88.13
2018-11-05T04:44:20.766Z,89.90
2018-11-05T04:46:52.488Z,75.17
2018-11-05T04:49:23.960Z,75.83
2018-11-05T04:51:56.351Z,71.23
2018-11-05T04:54:27.960Z,72.33
2018-11-05T04:57:00.414Z,70.67
2018-11-05T04:59:32.214Z,73.03
2018-11-05T05:02:03.835Z,62.43
2018-11-05T05:04:36.306Z,70.20
2018-11-05T05:07:08.162Z,65.20
2018-11-05T05:09:39.764Z,78.83
2018-11-05T05:12:11.431Z,73.27
2018-11-05T05:14:43.104Z,75.60
2018-11-05T05:17:15.400Z,75.93
2018-11-05T05:19:46.950Z,71.53
2018-11-05T05:22:18.399Z,75.07
2018-11-05T05:24:50.227Z,73.97
2018-11-05T05:27:21.902Z,70.80
2018-11-05T05:29:54.099Z,77.70
2018-11-05T05:32:25.730Z,77.70
2018-11-05T05:34:57.171Z,79.20
2018-11-05T05:37:28.902Z,76.03
2018-11-05T05:40:00.634Z,75.83
2018-11-05T05:42:32.075Z,78.90
2018-11-05T05:45:03.856Z,76.80
2018-11-05T05:47:35.349Z,83.80
2018-11-05T05:50:09.717Z,79.00
2018-11-05T05:52:42.174Z,78.17
2018-11-05T05:55:14.785Z,72.03
2018-11-05T05:57:46.534Z,80.53
2018-11-05T06:00:19.030Z,77.30
2018-11-05T06:02:50.762Z,66.30
2018-11-05T06:05:22.524Z,83.50
2018-11-05T06:07:54.111Z,79.83
2018-11-05T06:10:25.930Z,73.90
2018-11-05T06:12:57.530Z,74.47
2018-11-05T06:15:28.997Z,75.33
2018-11-05T06:18:00.487Z,77.03
2018-11-05T06:20:32.371Z,75.03
2018-11-05T06:23:03.948Z,71.23
2018-11-05T06:25:35.398Z,71.77
2018-11-05T06:28:07.119Z,64.10
2018-11-05T06:30:38.700Z,66.10
2018-11-05T06:33:10.579Z,73.07
2018-11-05T06:35:42.020Z,72.13
2018-11-05T06:38:14.403Z,70.53
2018-11-05T06:40:45.979Z,75.63
2018-11-05T06:43:18.331Z,71.07
2018-11-05T06:45:49.991Z,69.97
2018-11-05T06:48:21.580Z,64.87
2018-11-05T06:50:53.174Z,73.50
2018-11-05T06:53:25.208Z,62.83
2018-11-05T06:55:56.687Z,70.07
2018-11-05T06:58:28.419Z,59.30
2018-11-05T07:01:00.843Z,66.30
2018-11-05T07:03:32.455Z,77.20
2018-11-05T07:06:04.874Z,71.47
2018-11-05T07:08:36.577Z,65.97
2018-11-05T07:11:08.189Z,66.30
2018-11-05T07:13:40.655Z,70.40
2018-11-05T07:16:12.297Z,73.57
2018-11-05T07:18:44.691Z,62.43
2018-11-05T07:21:17.251Z,70.80
2018-11-05T07:23:48.767Z,73.47
2018-11-05T07:26:20.472Z,65.07
2018-11-05T07:28:52.853Z,69.30
2018-11-05T07:31:24.518Z,70.53
2018-11-05T07:33:56.138Z,70.70
2018-11-05T07:36:27.816Z,71.17
2018-11-05T07:38:59.521Z,72.80
2018-11-05T07:41:31.268Z,64.20
2018-11-05T07:44:02.959Z,68.30
2018-11-05T07:46:35.344Z,63.40
2018-11-05T07:49:07.195Z,73.47
2018-11-05T07:51:38.753Z,68.30
2018-11-05T07:54:10.200Z,68.30
2018-11-05T07:56:42.698Z,75.93
2018-11-05T07:59:14.288Z,66.13
2018-11-05T08:01:46.161Z,65.80
2018-11-05T08:04:17.783Z,73.47
2018-11-05T08:06:49.644Z,68.17
2018-11-05T08:09:21.194Z,68.47
2018-11-05T08:11:53.024Z,76.83
2018-11-05T08:14:24.593Z,69.73
2018-11-05T08:16:56.395Z,78.27
2018-11-05T08:19:28.027Z,75.53
2018-11-05T08:21:59.941Z,71.23
2018-11-05T08:24:31.682Z,72.03
2018-11-05T08:27:03.300Z,76.57
2018-11-05T08:29:35.836Z,70.03
2018-11-05T08:32:07.522Z,64.53
2018-11-05T08:34:39.151Z,68.87
2018-11-05T08:37:10.535Z,69.37
2018-11-05T08:39:42.304Z,65.47
2018-11-05T08:42:14.015Z,71.40
2018-11-05T08:44:45.713Z,67.83
2018-11-05T08:47:17.370Z,81.30
2018-11-05T08:49:48.911Z,72.43
2018-11-05T08:52:20.780Z,63.93
2018-11-05T08:54:52.429Z,65.77
2018-11-05T08:57:24.302Z,78.20
2018-11-05T08:59:56.010Z,78.37
2018-11-05T09:02:27.778Z,62.60
2018-11-05T09:04:59.744Z,66.30
2018-11-05T09:07:31.439Z,65.00
2018-11-05T09:10:03.427Z,67.13
2018-11-05T09:12:35.139Z,71.27
2018-11-05T09:15:07.709Z,70.67
2018-11-05T09:17:40.255Z,65.43
2018-11-05T09:20:13.160Z,74.60
2018-11-05T09:22:45.621Z,66.47
2018-11-05T09:25:17.669Z,73.87
2018-11-05T09:27:49.189Z,71.43
2018-11-05T09:30:22.301Z,65.70
2018-11-05T09:32:54.076Z,61.10
2018-11-05T09:35:25.963Z,66.37
2018-11-05T09:37:58.439Z,74.10
2018-11-05T09:40:29.992Z,64.00
2018-11-05T09:43:01.715Z,72.97
2018-11-05T09:45:33.271Z,66.63
2018-11-05T09:48:04.811Z,71.10
2018-11-05T09:50:36.474Z,62.07
2018-11-05T09:53:08.153Z,68.80
2018-11-05T09:55:40.019Z,69.90
2018-11-05T09:58:12.483Z,74.03
2018-11-05T10:00:44.211Z,58.23
2018-11-05T10:03:16.874Z,61.90
2018-11-05T10:05:48.331Z,61.97
2018-11-05T10:08:20.734Z,69.73
2018-11-05T10:10:52.274Z,73.03
2018-11-05T10:13:24.130Z,67.13
2018-11-05T10:15:55.574Z,63.47
2018-11-05T10:18:27.151Z,70.60
2018-11-05T10:20:58.756Z,69.40
2018-11-05T10:23:30.244Z,65.63
2018-11-05T10:26:01.873Z,58.43
2018-11-05T10:28:33.356Z,68.87
2018-11-05T10:31:04.975Z,61.60
2018-11-05T10:33:36.695Z,64.40
2018-11-05T10:36:09.248Z,63.63
2018-11-05T10:38:40.773Z,62.80
2018-11-05T10:41:13.426Z,63.27
2018-11-05T10:43:45.963Z,59.10
2018-11-05T10:46:17.670Z,69.40
2018-11-05T10:48:49.555Z,61.57
2018-11-05T10:51:21.141Z,64.73
2018-11-05T10:53:52.727Z,64.57
2018-11-05T10:56:25.363Z,68.73
2018-11-05T10:58:56.917Z,62.90
2018-11-05T11:01:33.319Z,68.07
2018-11-05T11:04:10.371Z,59.60
2018-11-05T11:06:41.812Z,56.10
2018-11-05T11:09:14.243Z,62.50
2018-11-05T11:11:45.772Z,64.83
2018-11-05T11:14:17.551Z,63.37
2018-11-05T11:16:49.199Z,72.73
2018-11-05T11:19:20.827Z,65.30
2018-11-05T11:21:53.187Z,66.47
2018-11-05T11:24:24.743Z,60.93
2018-11-05T11:26:56.552Z,65.43
2018-11-05T11:29:28.153Z,61.47
2018-11-05T11:32:00.063Z,68.43
2018-11-05T11:34:31.532Z,60.17
2018-11-05T11:37:03.189Z,68.17
2018-11-05T11:39:34.874Z,62.77
2018-11-05T11:42:06.403Z,68.27
2018-11-05T11:44:37.977Z,64.40
2018-11-05T11:47:09.712Z,68.07
2018-11-05T11:49:41.252Z,58.87
2018-11-05T11:52:13.096Z,64.37
2018-11-05T11:54:44.746Z,62.10
2018-11-05T11:57:16.616Z,65.70
2018-11-05T11:59:48.225Z,61.70
2018-11-05T12:02:20.073Z,70.73
2018-11-05T12:04:51.731Z,64.00
2018-11-05T12:07:23.419Z,57.10
2018-11-05T12:09:55.136Z,61.87
2018-11-05T12:12:26.818Z,76.07
2018-11-05T12:14:58.663Z,55.97
2018-11-05T12:17:30.498Z,61.07
2018-11-05T12:20:02.058Z,64.17
2018-11-05T12:22:33.785Z,68.63
2018-11-05T12:25:05.651Z,54.20
2018-11-05T12:27:37.397Z,58.47
2018-11-05T12:30:17.014Z,75.50
2018-11-05T12:32:49.668Z,69.70
2018-11-05T12:35:21.257Z,64.93
2018-11-05T12:37:53.746Z,66.87
2018-11-05T12:40:25.413Z,62.13
2018-11-05T12:42:57.194Z,64.90
2018-11-05T12:45:28.959Z,64.83
2018-11-05T12:48:00.518Z,64.60
2018-11-05T12:50:32.314Z,69.97
2018-11-05T12:53:04.711Z,59.87
2018-11-05T12:55:36.198Z,64.33
2018-11-05T12:58:07.732Z,65.10
2018-11-05T13:00:39.328Z,64.23
2018-11-05T13:03:11.024Z,68.50
2018-11-05T13:05:42.913Z,57.33
2018-11-05T13:08:14.397Z,66.67
2018-11-05T13:10:46.745Z,55.43
2018-11-05T13:13:18.459Z,59.37
2018-11-05T13:15:50.275Z,58.10
2018-11-05T13:18:21.829Z,59.80
2018-11-05T13:20:53.601Z,62.03
2018-11-05T13:23:30.005Z,54.37
2018-11-05T13:26:02.209Z,58.63
2018-11-05T13:28:35.003Z,60.70
2018-11-05T13:31:06.623Z,59.10
2018-11-05T13:33:38.597Z,59.87
2018-11-05T13:36:10.479Z,68.13
2018-11-05T13:38:42.173Z,58.97
2018-11-05T13:41:13.829Z,65.97
2018-11-05T13:43:46.152Z,64.10
2018-11-05T13:46:20.475Z,62.13
2018-11-05T13:48:53.767Z,63.83
2018-11-05T13:51:25.269Z,61.27
2018-11-05T13:53:57.009Z,62.53
2018-11-05T13:56:29.549Z,66.80
2018-11-05T13:59:00.991Z,67.07
2018-11-05T14:01:32.821Z,56.97
2018-11-05T14:04:04.530Z,62.93
2018-11-05T14:06:36.129Z,59.90
2018-11-05T14:09:10.128Z,70.33
2018-11-05T14:11:41.681Z,69.87
2018-11-05T14:14:13.516Z,65.60
2018-11-05T14:16:45.185Z,60.20
2018-11-05T14:19:16.983Z,57.27
2018-11-05T14:21:48.661Z,66.53
2018-11-05T14:24:20.257Z,75.77
2018-11-05T14:26:52.054Z,68.30
2018-11-05T14:29:24.221Z,69.37
2018-11-05T14:31:55.529Z,65.97
2018-11-05T14:34:27.238Z,66.30
2018-11-05T14:36:58.862Z,64.10
2018-11-05T14:39:30.532Z,74.50
2018-11-05T14:42:02.158Z,68.47
2018-11-05T14:44:33.992Z,66.23
2018-11-05T14:47:05.679Z,68.97
2018-11-05T14:49:37.343Z,69.43
2018-11-05T14:52:09.759Z,63.63
2018-11-05T14:54:41.304Z,70.13
2018-11-05T14:57:13.176Z,67.23
2018-11-05T14:59:45.148Z,72.20
2018-11-05T15:02:22.658Z,73.57
2018-11-05T15:04:54.706Z,66.23
2018-11-05T15:07:27.102Z,77.07
2018-11-05T15:09:58.944Z,71.37
2018-11-05T15:12:31.637Z,73.00
2018-11-05T15:15:03.155Z,85.37
2018-11-05T15:17:34.778Z,74.37
2018-11-05T15:20:07.685Z,77.30
2018-11-05T15:22:39.643Z,75.63
2018-11-05T15:25:11.706Z,73.27
2018-11-05T15:27:43.347Z,95.07
2018-11-05T15:30:21.784Z,75.83
2018-11-05T15:32:53.511Z,92.93
2018-11-05T15:35:25.172Z,95.60
2018-11-05T15:37:57.773Z,89.57
2018-11-05T15:40:29.389Z,93.43
2018-11-05T15:43:00.852Z,101.07
2018-11-05T15:45:32.446Z,95.43
2018-11-05T15:48:04.358Z,86.10
2018-11-05T15:50:36.242Z,93.13
2018-11-05T15:53:07.808Z,94.80
2018-11-05T15:55:39.476Z,101.00
2018-11-05T15:58:11.422Z,94.70
2018-11-05T16:00:42.860Z,95.20
2018-11-05T16:03:14.537Z,93.90
2018-11-05T16:05:46.163Z,99.40
2018-11-05T16:08:17.820Z,95.97
2018-11-05T16:10:49.505Z,100.77
2018-11-05T16:13:21.303Z,107.13
2018-11-05T16:15:53.235Z,102.57
2018-11-05T16:18:25.906Z,99.97
2018-11-05T16:20:57.604Z,96.90
2018-11-05T16:23:29.354Z,100.27
2018-11-05T16:26:01.798Z,105.07
2018-11-05T16:28:33.389Z,105.40
2018-11-05T16:31:05.485Z,102.17
2018-11-05T16:33:37.297Z,99.10
2018-11-05T16:36:09.113Z,105.27
2018-11-05T16:38:41.765Z,110.30
2018-11-05T16:41:13.706Z,91.13
2018-11-05T16:43:45.504Z,94.37
2018-11-05T16:46:17.310Z,107.60
2018-11-05T16:48:49.362Z,117.13
2018-11-05T16:51:21.370Z,110.87
2018-11-05T16:53:53.187Z,102.57
2018-11-05T16:56:25.152Z,98.93
2018-11-05T16:58:56.865Z,116.87
2018-11-05T17:01:29.416Z,103.80
2018-11-05T17:04:00.867Z,119.87
2018-11-05T17:06:32.733Z,105.43
2018-11-05T17:09:05.463Z,126.57
2018-11-05T17:11:38.234Z,112.80
2018-11-05T17:14:10.171Z,98.73
2018-11-05T17:16:41.760Z,103.30
2018-11-05T17:19:13.773Z,113.40
2018-11-05T17:21:45.419Z,117.43
2018-11-05T17:24:17.191Z,102.30
2018-11-05T17:26:48.759Z,109.47
2018-11-05T17:29:20.620Z,115.03
2018-11-05T17:31:52.293Z,111.57
2018-11-05T17:34:24.214Z,109.20
2018-11-05T17:36:55.763Z,98.50
2018-11-05T17:39:27.722Z,109.37
2018-11-05T17:41:59.322Z,115.77
2018-11-05T17:44:31.361Z,119.80
2018-11-05T17:47:03.104Z,114.33
2018-11-05T17:49:34.780Z,117.90
2018-11-05T17:52:06.578Z,114.00
2018-11-05T17:54:38.688Z,110.07
2018-11-05T17:57:10.784Z,104.00
2018-11-05T17:59:43.433Z,118.83
2018-11-05T18:02:20.819Z,116.27
2018-11-05T18:04:54.393Z,104.77
2018-11-05T18:07:26.223Z,104.40
2018-11-05T18:09:58.101Z,92.57
2018-11-05T18:12:29.800Z,104.97
2018-11-05T18:15:01.722Z,88.00
2018-11-05T18:17:33.415Z,102.57
2018-11-05T18:20:05.779Z,84.93
2018-11-05T18:22:43.229Z,86.70
2018-11-05T18:25:23.423Z,91.17
2018-11-05T18:27:55.729Z,94.13
2018-11-05T18:30:27.593Z,95.40
2018-11-05T18:32:59.794Z,87.43
2018-11-05T18:35:31.701Z,86.60
2018-11-05T18:38:03.680Z,81.37
2018-11-05T18:40:38.179Z,80.63
2018-11-05T18:43:10.232Z,81.67
2018-11-05T18:45:42.912Z,83.33
2018-11-05T18:48:15.780Z,86.90
2018-11-05T18:50:47.704Z,76.17
2018-11-05T18:53:20.405Z,82.23
2018-11-05T18:55:52.547Z,79.13
2018-11-05T18:58:25.058Z,91.37
2018-11-05T19:00:57.493Z,77.57
2018-11-05T19:03:30.504Z,83.30
2018-11-05T19:06:02.712Z,87.17
2018-11-05T19:08:35.461Z,82.73
2018-11-05T19:11:08.554Z,84.73
2018-11-05T19:13:40.406Z,79.63
2018-11-05T19:16:12.735Z,75.27
2018-11-05T19:18:44.713Z,86.07
2018-11-05T19:21:16.762Z,84.50
2018-11-05T19:23:49.501Z,82.30
2018-11-05T19:26:21.903Z,83.30
2018-11-05T19:28:53.711Z,84.07
2018-11-05T19:31:25.525Z,97.07
2018-11-05T19:33:57.334Z,85.23
2018-11-05T19:36:29.266Z,90.57
2018-11-05T19:39:01.003Z,89.43
2018-11-05T19:41:32.845Z,87.20
2018-11-05T19:44:04.964Z,89.97
2018-11-05T19:46:36.891Z,95.73
2018-11-05T19:49:08.637Z,94.03
2018-11-05T19:51:40.812Z,97.20
2018-11-05T19:54:13.971Z,88.97
2018-11-05T19:56:46.296Z,92.37
2018-11-05T19:59:19.186Z,77.87
2018-11-05T20:01:51.197Z,93.87
2018-11-05T20:04:23.352Z,73.43
2018-11-05T20:06:56.349Z,87.60
2018-11-05T20:09:27.923Z,87.03
2018-11-05T20:12:00.310Z,84.70
2018-11-05T20:14:33.406Z,85.10
2018-11-05T20:17:06.567Z,92.27
2018-11-05T20:19:38.605Z,94.07
2018-11-05T20:22:12.347Z,85.27
2018-11-05T20:24:44.161Z,81.73
2018-11-05T20:27:16.672Z,82.47
2018-11-05T20:29:48.949Z,91.30
2018-11-05T20:32:22.586Z,98.07
2018-11-05T20:34:54.299Z,95.17
2018-11-05T20:37:27.683Z,98.87
2018-11-05T20:39:59.880Z,98.60
2018-11-05T20:42:33.323Z,92.77
2018-11-05T20:45:05.430Z,98.37
2018-11-05T20:47:37.151Z,98.23
2018-11-05T20:50:09.769Z,97.47
2018-11-05T20:52:42.571Z,102.63
2018-11-05T20:55:15.487Z,87.63
2018-11-05T20:57:47.943Z,100.07
2018-11-05T21:00:20.659Z,95.57
2018-11-05T21:02:53.725Z,96.17
2018-11-05T21:05:25.598Z,107.83
2018-11-05T21:07:57.580Z,123.90
2018-11-05T21:10:29.514Z,123.17
2018-11-05T21:13:01.556Z,116.93
2018-11-05T21:15:34.146Z,121.80
2018-11-05T21:18:06.360Z,122.23
2018-11-05T21:20:38.310Z,112.40
2018-11-05T21:23:10.307Z,120.47
2018-11-05T21:25:41.915Z,117.57
2018-11-05T21:28:14.283Z,104.23
2018-11-05T21:30:45.948Z,108.70
2018-11-05T21:33:17.737Z,123.37
2018-11-05T21:35:49.361Z,124.77
2018-11-05T21:38:21.091Z,105.43
2018-11-05T21:40:52.683Z,114.73
2018-11-05T21:43:24.554Z,113.03
2018-11-05T21:45:56.963Z,119.40
2018-11-05T21:48:28.634Z,116.97
2018-11-05T21:51:00.278Z,117.83
2018-11-05T21:53:32.068Z,119.10
2018-11-05T21:56:03.656Z,117.37
2018-11-05T21:58:35.572Z,123.13
2018-11-05T22:01:07.319Z,110.20
2018-11-05T22:03:39.217Z,134.43
2018-11-05T22:06:11.024Z,125.37
2018-11-05T22:08:42.792Z,126.20
2018-11-05T22:11:14.592Z,130.50
2018-11-05T22:13:46.334Z,122.60
2018-11-05T22:16:18.891Z,123.20
2018-11-05T22:18:50.475Z,111.83
2018-11-05T22:21:22.287Z,99.37
2018-11-05T22:23:53.878Z,120.60
2018-11-05T22:26:25.956Z,105.37
2018-11-05T22:28:58.372Z,123.77
2018-11-05T22:31:29.862Z,123.80
2018-11-05T22:34:01.695Z,112.13
2018-11-05T22:36:33.209Z,116.20
2018-11-05T22:39:05.118Z,120.13
2018-11-05T22:41:36.704Z,118.50
2018-11-05T22:44:09.352Z,120.40
2018-11-05T22:46:40.916Z,127.67
2018-11-05T22:49:12.958Z,127.77
2018-11-05T22:51:44.501Z,121.60
2018-11-05T22:54:16.383Z,119.33
2018-11-05T22:56:49.059Z,125.50
2018-11-05T22:59:20.597Z,139.43
2018-11-05T23:01:53.370Z,127.20
2018-11-05T23:04:25.085Z,123.60
2018-11-05T23:06:58.267Z,140.50
2018-11-05T23:09:29.974Z,122.17
2018-11-05T23:12:00.925Z,122.03
2018-11-05T23:14:31.897Z,134.93
2018-11-05T23:17:03.797Z,119.90
2018-11-05T23:19:35.364Z,127.60
2018-11-05T23:22:07.168Z,117.07
2018-11-05T23:24:38.669Z,121.43
2018-11-05T23:27:10.296Z,118.63
2018-11-05T23:29:51.006Z,117.00
2018-11-05T23:32:22.897Z,122.50
2018-11-05T23:34:54.311Z,122.30
2018-11-05T23:37:26.481Z,130.20
2018-11-05T23:39:58.012Z,128.03
2018-11-05T23:42:29.864Z,124.50
2018-11-05T23:45:01.569Z,128.73
2018-11-05T23:47:33.123Z,131.83
2018-11-05T23:50:05.690Z,132.73
2018-11-05T23:52:37.280Z,126.07
2018-11-05T23:55:09.804Z,130.93
2018-11-05T23:57:42.526Z,135.67
